Airfield :
LOGIN :

Register | Disclaimer

   EN    FR    IT 

 










Legend :    VFR   Marginal VFR   IFR   Intensive IFR   Very Intensive IFR
Visi :
Ceiling :
>= 8 km
>= 3000ft
5 to 8 km
1000 to 3000 ft
1500m to 5 km
500 to 1000 ft
800 to 1500m
200 to 500 ft
< 800m
< 200 ft
Symbols :   Thunderstorms  Fog  Heavy snow  Heavy precipitations  Wind > 20 kt
SIGMETs :     Misc.  Thunderstorms  Icing  Turbulence  Mountain Waves  Volcanic Ashes







- Airport Elevation : 183 ft
- IATA code : HAJ


EDDV - Hanover/Langenhagen Int.

CURRENT METAR :
  • 260750Z 28011KT 230V300 9999 FEW017 15/10 Q1010 NOSIG

EXPIRED METARs :
  • 260720Z 27010KT 240V300 9999 FEW013 13/10 Q1010 NOSIG
  • 260650Z 28011KT 9999 FEW013 13/09 Q1009 NOSIG
  • 260620Z 27013KT CAVOK 13/09 Q1009 NOSIG
  • 260550Z 28012KT 240V300 CAVOK 12/09 Q1009 NOSIG
  • 260520Z 26011KT CAVOK 12/08 Q1009 NOSIG

TAF TAF EDDV
Valid from the 26 at 06:00 until the 27 at 06:00 UTC


260500Z 2606/2706 27007KT 9999 FEW035
TEMPO 2606/2615 28013KT
PROB30
TEMPO 2609/2613 SHRA SCT015 BKN040CB
BECMG 2615/2618 VRB03KT
No reported NOTAMs for that airfield.
1 SIGMET reported for the Bremen FIR (EDWW) :
 
Frequent thunderstorms
EDWW SIGMET 1 VALID 260700/260830 EDZF
EDWW BREMEN FIR FRQ TS FCST APRX 40NM WID LINE BTN N5450 E00726 - N5347 E01103 TOP FL310 MOV NE WKN=



MET'MAP, your aeronautical weather chart ! - Copyright ORBIFLY December 2007 - Disclaimer

ORBIFLY MET'MAP TEAM :

Programming & Development : Alexandra Zaïnal
Concept & Development : Baudouin d'Aumeries
Co-Development & Prog : Marc-Olivier Méhu
Technical & hardware support : Manuel Goepfert

Contact : metmap@orbifly.com




SOURCES & CREDITS :

   NOAA